sensor_id;sensor_type;location;lat;lon;timestamp;pressure;altitude;pressure_sealevel;temperature;humidity
47815;BME280;33579;50.058;18.130;2023-01-29T00:01:07;100294.53;;;-2.28;100.00
47815;BME280;33579;50.058;18.130;2023-01-29T00:02:09;100302.94;;;-2.15;100.00
47815;BME280;33579;50.058;18.130;2023-01-29T00:03:10;100301.94;;;-2.06;100.00
47815;BME280;33579;50.058;18.130;2023-01-29T00:04:12;100301.00;;;-2.04;100.00
47815;BME280;33579;50.058;18.130;2023-01-29T00:05:14;100295.81;;;-2.01;100.00
47815;BME280;33579;50.058;18.130;2023-01-29T00:06:28;100297.59;;;-2.04;100.00
47815;BME280;33579;50.058;18.130;2023-01-29T00:07:30;100294.13;;;-2.02;100.00
47815;BME280;33579;50.058;18.130;2023-01-29T00:08:35;100292.50;;;-2.07;100.00
47815;BME280;33579;50.058;18.130;2023-01-29T00:09:37;100287.38;;;-2.10;100.00
47815;BME280;33579;50.058;18.130;2023-01-29T00:10:38;100287.28;;;-2.06;100.00
47815;BME280;33579;50.058;18.130;2023-01-29T00:11:40;100292.38;;;-2.01;100.00
47815;BME280;33579;50.058;18.130;2023-01-29T00:12:41;100284.56;;;-1.95;100.00
47815;BME280;33579;50.058;18.130;2023-01-29T00:13:43;100287.88;;;-1.88;100.00
47815;BME280;33579;50.058;18.130;2023-01-29T00:14:44;100283.53;;;-1.86;100.00
47815;BME280;33579;50.058;18.130;2023-01-29T00:15:53;100287.06;;;-1.90;100.00
47815;BME280;33579;50.058;18.130;2023-01-29T00:16:55;100290.59;;;-1.96;100.00
47815;BME280;33579;50.058;18.130;2023-01-29T00:17:57;100304.53;;;-2.08;100.00
47815;BME280;33579;50.058;18.130;2023-01-29T00:19:00;100291.91;;;-2.25;100.00
47815;BME280;33579;50.058;18.130;2023-01-29T00:20:01;100299.66;;;-2.25;100.00
47815;BME280;33579;50.058;18.130;2023-01-29T00:21:07;100293.72;;;-2.30;100.00
47815;BME280;33579;50.058;18.130;2023-01-29T00:22:08;100295.41;;;-2.28;100.00
47815;BME280;33579;50.058;18.130;2023-01-29T00:23:10;100300.50;;;-2.24;100.00
47815;BME280;33579;50.058;18.130;2023-01-29T00:24:11;100300.53;;;-2.26;100.00
47815;BME280;33579;50.058;18.130;2023-01-29T00:25:13;100301.41;;;-2.27;100.00
47815;BME280;33579;50.058;18.130;2023-01-29T00:26:15;100302.28;;;-2.27;100.00
47815;BME280;33579;50.058;18.130;2023-01-29T00:27:21;100306.50;;;-2.22;100.00
47815;BME280;33579;50.058;18.130;2023-01-29T00:28:22;100305.59;;;-2.20;100.00
47815;BME280;33579;50.058;18.130;2023-01-29T00:29:24;100308.06;;;-2.14;100.00
47815;BME280;33579;50.058;18.130;2023-01-29T00:30:25;100310.63;;;-2.14;100.00
47815;BME280;33579;50.058;18.130;2023-01-29T00:31:28;100310.56;;;-2.09;100.00
47815;BME280;33579;50.058;18.130;2023-01-29T00:32:31;100307.97;;;-2.09;100.00
47815;BME280;33579;50.058;18.130;2023-01-29T00:33:32;100305.41;;;-2.09;100.00
47815;BME280;33579;50.058;18.130;2023-01-29T00:34:34;100307.16;;;-2.11;100.00
47815;BME280;33579;50.058;18.130;2023-01-29T00:35:38;100313.97;;;-2.07;100.00
47815;BME280;33579;50.058;18.130;2023-01-29T00:36:40;100313.22;;;-2.14;100.00
47815;BME280;33579;50.058;18.130;2023-01-29T00:37:41;100318.34;;;-2.12;100.00
47815;BME280;33579;50.058;18.130;2023-01-29T00:38:45;100320.19;;;-2.20;100.00
47815;BME280;33579;50.058;18.130;2023-01-29T00:39:46;100319.25;;;-2.16;100.00
47815;BME280;33579;50.058;18.130;2023-01-29T00:40:48;100319.16;;;-2.08;100.00
47815;BME280;33579;50.058;18.130;2023-01-29T00:41:50;100315.59;;;-2.01;100.00
47815;BME280;33579;50.058;18.130;2023-01-29T00:42:52;100314.69;;;-1.97;100.00
47815;BME280;33579;50.058;18.130;2023-01-29T00:43:53;100313.84;;;-1.99;100.00
47815;BME280;33579;50.058;18.130;2023-01-29T00:44:55;100308.66;;;-1.96;100.00
47815;BME280;33579;50.058;18.130;2023-01-29T00:45:56;100316.25;;;-1.90;100.00
47815;BME280;33579;50.058;18.130;2023-01-29T00:46:58;100305.13;;;-1.93;100.00
47815;BME280;33579;50.058;18.130;2023-01-29T00:48:00;100309.53;;;-1.99;100.00
47815;BME280;33579;50.058;18.130;2023-01-29T00:49:02;100312.03;;;-1.94;100.00
47815;BME280;33579;50.058;18.130;2023-01-29T00:50:09;100312.84;;;-1.90;100.00
47815;BME280;33579;50.058;18.130;2023-01-29T00:51:11;100311.09;;;-1.88;100.00
47815;BME280;33579;50.058;18.130;2023-01-29T00:52:12;100313.53;;;-1.82;100.00
47815;BME280;33579;50.058;18.130;2023-01-29T00:53:14;100305.00;;;-1.86;100.00
47815;BME280;33579;50.058;18.130;2023-01-29T00:54:16;100303.41;;;-1.93;100.00
47815;BME280;33579;50.058;18.130;2023-01-29T00:55:17;100312.25;;;-2.06;100.00
47815;BME280;33579;50.058;18.130;2023-01-29T00:56:19;100310.44;;;-2.01;100.00
47815;BME280;33579;50.058;18.130;2023-01-29T00:57:22;100312.88;;;-1.93;100.00
47815;BME280;33579;50.058;18.130;2023-01-29T00:58:24;100317.94;;;-1.87;100.00
47815;BME280;33579;50.058;18.130;2023-01-29T00:59:26;100312.66;;;-1.81;100.00
47815;BME280;33579;50.058;18.130;2023-01-29T01:00:27;100311.75;;;-1.77;100.00
47815;BME280;33579;50.058;18.130;2023-01-29T01:01:29;100311.75;;;-1.77;100.00
47815;BME280;33579;50.058;18.130;2023-01-29T01:02:30;100311.81;;;-1.81;100.00
47815;BME280;33579;50.058;18.130;2023-01-29T01:03:32;100312.63;;;-1.78;100.00
47815;BME280;33579;50.058;18.130;2023-01-29T01:04:34;100310.06;;;-1.78;100.00
47815;BME280;33579;50.058;18.130;2023-01-29T01:05:35;100310.06;;;-1.78;100.00
47815;BME280;33579;50.058;18.130;2023-01-29T01:06:38;100308.28;;;-1.76;100.00
47815;BME280;33579;50.058;18.130;2023-01-29T01:07:40;100315.97;;;-1.74;100.00
47815;BME280;33579;50.058;18.130;2023-01-29T01:08:42;100307.34;;;-1.72;100.00
47815;BME280;33579;50.058;18.130;2023-01-29T01:09:43;100310.81;;;-1.74;100.00
47815;BME280;33579;50.058;18.130;2023-01-29T01:10:45;100313.41;;;-1.74;100.00
47815;BME280;33579;50.058;18.130;2023-01-29T01:11:47;100316.78;;;-1.71;100.00
47815;BME280;33579;50.058;18.130;2023-01-29T01:12:59;100315.09;;;-1.73;100.00
47815;BME280;33579;50.058;18.130;2023-01-29T01:14:01;100319.41;;;-1.72;100.00
47815;BME280;33579;50.058;18.130;2023-01-29T01:15:03;100313.31;;;-1.68;100.00
47815;BME280;33579;50.058;18.130;2023-01-29T01:16:12;100317.50;;;-1.62;100.00
47815;BME280;33579;50.058;18.130;2023-01-29T01:17:14;100311.38;;;-1.57;100.00
47815;BME280;33579;50.058;18.130;2023-01-29T01:18:16;100313.06;;;-1.54;100.00
47815;BME280;33579;50.058;18.130;2023-01-29T01:19:18;100308.81;;;-1.58;100.00
47815;BME280;33579;50.058;18.130;2023-01-29T01:20:19;100305.50;;;-1.65;100.00
47815;BME280;33579;50.058;18.130;2023-01-29T01:21:21;100313.25;;;-1.65;100.00
47815;BME280;33579;50.058;18.130;2023-01-29T01:22:22;100314.19;;;-1.69;100.00
47815;BME280;33579;50.058;18.130;2023-01-29T01:23:24;100309.91;;;-1.70;100.00
47815;BME280;33579;50.058;18.130;2023-01-29T01:24:26;100307.25;;;-1.67;100.00
47815;BME280;33579;50.058;18.130;2023-01-29T01:25:28;100304.66;;;-1.65;100.00
47815;BME280;33579;50.058;18.130;2023-01-29T01:26:30;100302.00;;;-1.62;100.00
47815;BME280;33579;50.058;18.130;2023-01-29T01:27:31;100303.78;;;-1.64;100.00
47815;BME280;33579;50.058;18.130;2023-01-29T01:28:33;100308.16;;;-1.68;100.00
47815;BME280;33579;50.058;18.130;2023-01-29T01:29:34;100303.78;;;-1.64;100.00
47815;BME280;33579;50.058;18.130;2023-01-29T01:30:36;100305.41;;;-1.60;100.00
47815;BME280;33579;50.058;18.130;2023-01-29T01:31:38;100300.47;;;-1.71;100.00
47815;BME280;33579;50.058;18.130;2023-01-29T01:32:40;100297.81;;;-1.66;100.00
47815;BME280;33579;50.058;18.130;2023-01-29T01:33:41;100294.28;;;-1.62;100.00
47815;BME280;33579;50.058;18.130;2023-01-29T01:34:43;100290.78;;;-1.60;100.00
47815;BME280;33579;50.058;18.130;2023-01-29T01:35:46;100291.78;;;-1.68;100.00
47815;BME280;33579;50.058;18.130;2023-01-29T01:36:48;100290.16;;;-1.73;100.00
47815;BME280;33579;50.058;18.130;2023-01-29T01:37:50;100294.41;;;-1.70;100.00
47815;BME280;33579;50.058;18.130;2023-01-29T01:38:52;100295.25;;;-1.68;100.00
47815;BME280;33579;50.058;18.130;2023-01-29T01:39:53;100293.47;;;-1.66;100.00
47815;BME280;33579;50.058;18.130;2023-01-29T01:40:55;100294.47;;;-1.73;100.00
47815;BME280;33579;50.058;18.130;2023-01-29T01:41:56;100294.38;;;-1.68;100.00
47815;BME280;33579;50.058;18.130;2023-01-29T01:42:59;100297.66;;;-1.60;100.00
47815;BME280;33579;50.058;18.130;2023-01-29T01:44:02;100294.22;;;-1.61;100.00
47815;BME280;33579;50.058;18.130;2023-01-29T01:45:07;100291.63;;;-1.59;100.00
47815;BME280;33579;50.058;18.130;2023-01-29T01:46:15;100281.53;;;-1.72;100.00
47815;BME280;33579;50.058;18.130;2023-01-29T01:47:20;100283.31;;;-1.74;100.00
47815;BME280;33579;50.058;18.130;2023-01-29T01:48:25;100281.69;;;-1.79;100.00
47815;BME280;33579;50.058;18.130;2023-01-29T01:49:27;100280.81;;;-1.78;100.00
47815;BME280;33579;50.058;18.130;2023-01-29T01:51:45;100278.06;;;-1.69;100.00
47815;BME280;33579;50.058;18.130;2023-01-29T01:52:52;100285.75;;;-1.67;100.00
47815;BME280;33579;50.058;18.130;2023-01-29T01:54:05;100284.19;;;-1.76;100.00
47815;BME280;33579;50.058;18.130;2023-01-29T01:55:11;100276.63;;;-1.86;100.00
47815;BME280;33579;50.058;18.130;2023-01-29T01:56:18;100280.97;;;-1.88;100.00
47815;BME280;33579;50.058;18.130;2023-01-29T01:57:23;100275.72;;;-1.83;100.00
47815;BME280;33579;50.058;18.130;2023-01-29T01:58:38;100276.44;;;-1.75;100.00
47815;BME280;33579;50.058;18.130;2023-01-29T01:59:52;100273.81;;;-1.73;100.00
47815;BME280;33579;50.058;18.130;2023-01-29T02:00:57;100265.97;;;-1.65;100.00
47815;BME280;33579;50.058;18.130;2023-01-29T02:01:58;100267.53;;;-1.58;100.00
47815;BME280;33579;50.058;18.130;2023-01-29T02:03:01;100259.91;;;-1.64;100.00
47815;BME280;33579;50.058;18.130;2023-01-29T02:04:29;100258.22;;;-1.67;100.00
47815;BME280;33579;50.058;18.130;2023-01-29T02:05:32;100268.66;;;-1.73;100.00
47815;BME280;33579;50.058;18.130;2023-01-29T02:06:35;100264.34;;;-1.73;100.00
47815;BME280;33579;50.058;18.130;2023-01-29T02:07:41;100266.84;;;-1.68;100.00
47815;BME280;33579;50.058;18.130;2023-01-29T02:09:19;100266.06;;;-1.73;100.00
47815;BME280;33579;50.058;18.130;2023-01-29T02:10:22;100269.66;;;-1.80;100.00
47815;BME280;33579;50.058;18.130;2023-01-29T02:11:25;100262.88;;;-1.85;100.00
47815;BME280;33579;50.058;18.130;2023-01-29T02:12:26;100266.34;;;-1.87;100.00
47815;BME280;33579;50.058;18.130;2023-01-29T02:13:28;100268.78;;;-1.79;100.00
47815;BME280;33579;50.058;18.130;2023-01-29T02:14:30;100267.91;;;-1.80;100.00
47815;BME280;33579;50.058;18.130;2023-01-29T02:15:32;100262.81;;;-1.83;100.00
47815;BME280;33579;50.058;18.130;2023-01-29T02:16:36;100262.81;;;-1.81;100.00
47815;BME280;33579;50.058;18.130;2023-01-29T02:17:38;100267.88;;;-1.77;100.00
47815;BME280;33579;50.058;18.130;2023-01-29T02:18:40;100260.00;;;-1.69;100.00
47815;BME280;33579;50.058;18.130;2023-01-29T02:21:15;100261.72;;;-1.70;100.00
47815;BME280;33579;50.058;18.130;2023-01-29T02:22:45;100263.31;;;-1.64;100.00
47815;BME280;33579;50.058;18.130;2023-01-29T02:28:34;100248.91;;;-1.74;100.00
47815;BME280;33579;50.058;18.130;2023-01-29T02:29:54;100242.09;;;-1.77;100.00
47815;BME280;33579;50.058;18.130;2023-01-29T02:31:05;100236.94;;;-1.78;100.00
47815;BME280;33579;50.058;18.130;2023-01-29T02:37:50;100238.91;;;-1.91;100.00
47815;BME280;33579;50.058;18.130;2023-01-29T02:39:03;100231.94;;;-1.86;100.00
47815;BME280;33579;50.058;18.130;2023-01-29T02:41:33;100227.34;;;-1.70;100.00
47815;BME280;33579;50.058;18.130;2023-01-29T02:42:52;100229.81;;;-1.65;100.00
47815;BME280;33579;50.058;18.130;2023-01-29T02:46:43;100234.75;;;-1.53;100.00
47815;BME280;33579;50.058;18.130;2023-01-29T02:47:53;100237.34;;;-1.54;100.00
47815;BME280;33579;50.058;18.130;2023-01-29T02:49:05;100237.41;;;-1.58;100.00
47815;BME280;33579;50.058;18.130;2023-01-29T02:53:15;100234.94;;;-1.64;100.00
47815;BME280;33579;50.058;18.130;2023-01-29T02:54:22;100241.88;;;-1.67;100.00
47815;BME280;33579;50.058;18.130;2023-01-29T02:55:29;100250.56;;;-1.70;100.00
47815;BME280;33579;50.058;18.130;2023-01-29T02:56:47;100250.47;;;-1.65;100.00
47815;BME280;33579;50.058;18.130;2023-01-29T02:57:55;100248.72;;;-1.63;100.00
47815;BME280;33579;50.058;18.130;2023-01-29T02:59:15;100253.13;;;-1.70;100.00
47815;BME280;33579;50.058;18.130;2023-01-29T03:00:25;100252.22;;;-1.67;100.00
47815;BME280;33579;50.058;18.130;2023-01-29T03:01:35;100249.53;;;-1.63;100.00
47815;BME280;33579;50.058;18.130;2023-01-29T03:03:45;100255.00;;;-1.78;100.00
47815;BME280;33579;50.058;18.130;2023-01-29T03:04:51;100258.34;;;-1.73;100.00
47815;BME280;33579;50.058;18.130;2023-01-29T03:06:00;100260.06;;;-1.72;100.00
47815;BME280;33579;50.058;18.130;2023-01-29T03:07:07;100256.63;;;-1.73;100.00
47815;BME280;33579;50.058;18.130;2023-01-29T03:08:14;100260.06;;;-1.72;100.00
47815;BME280;33579;50.058;18.130;2023-01-29T03:09:24;100265.25;;;-1.75;100.00
47815;BME280;33579;50.058;18.130;2023-01-29T03:11:02;100262.00;;;-1.84;100.00
47815;BME280;33579;50.058;18.130;2023-01-29T03:12:11;100267.03;;;-1.77;100.00
47815;BME280;33579;50.058;18.130;2023-01-29T03:13:18;100254.91;;;-1.72;100.00
47815;BME280;33579;50.058;18.130;2023-01-29T03:14:47;100265.19;;;-1.71;100.00
47815;BME280;33579;50.058;18.130;2023-01-29T03:15:57;100265.25;;;-1.74;100.00
47815;BME280;33579;50.058;18.130;2023-01-29T03:17:10;100272.03;;;-1.70;100.00
47815;BME280;33579;50.058;18.130;2023-01-29T03:18:14;100267.84;;;-1.75;100.00
47815;BME280;33579;50.058;18.130;2023-01-29T03:19:29;100275.47;;;-1.69;100.00
47815;BME280;33579;50.058;18.130;2023-01-29T03:21:05;100266.91;;;-1.71;100.00
47815;BME280;33579;50.058;18.130;2023-01-29T03:22:09;100274.59;;;-1.66;100.00
47815;BME280;33579;50.058;18.130;2023-01-29T03:23:19;100273.72;;;-1.67;100.00
47815;BME280;33579;50.058;18.130;2023-01-29T03:24:58;100272.03;;;-1.70;100.00
47815;BME280;33579;50.058;18.130;2023-01-29T03:26:00;100279.03;;;-1.76;100.00
47815;BME280;33579;50.058;18.130;2023-01-29T03:27:07;100275.63;;;-1.77;100.00
47815;BME280;33579;50.058;18.130;2023-01-29T03:28:16;100274.63;;;-1.70;100.00
47815;BME280;33579;50.058;18.130;2023-01-29T03:29:20;100273.72;;;-1.67;100.00
47815;BME280;33579;50.058;18.130;2023-01-29T03:30:24;100272.91;;;-1.71;100.00
47815;BME280;33579;50.058;18.130;2023-01-29T03:31:37;100269.53;;;-1.73;100.00
47815;BME280;33579;50.058;18.130;2023-01-29T03:32:39;100268.78;;;-1.79;100.00
47815;BME280;33579;50.058;18.130;2023-01-29T03:33:46;100263.59;;;-1.78;100.00
47815;BME280;33579;50.058;18.130;2023-01-29T03:34:55;100266.13;;;-1.76;100.00
47815;BME280;33579;50.058;18.130;2023-01-29T03:36:06;100265.44;;;-1.85;100.00
47815;BME280;33579;50.058;18.130;2023-01-29T03:37:40;100273.00;;;-1.75;100.00
47815;BME280;33579;50.058;18.130;2023-01-29T03:38:39;100277.38;;;-1.79;100.00
47815;BME280;33579;50.058;18.130;2023-01-29T03:39:42;100274.81;;;-1.79;100.00
47815;BME280;33579;50.058;18.130;2023-01-29T03:40:51;100278.25;;;-1.80;100.00
47815;BME280;33579;50.058;18.130;2023-01-29T03:47:36;100264.06;;;-1.57;100.00
47815;BME280;33579;50.058;18.130;2023-01-29T03:49:59;100255.50;;;-1.59;100.00
47815;BME280;33579;50.058;18.130;2023-01-29T03:53:35;100266.31;;;-1.86;100.00
47815;BME280;33579;50.058;18.130;2023-01-29T03:54:55;100262.75;;;-1.80;100.00
47815;BME280;33579;50.058;18.130;2023-01-29T03:56:06;100261.03;;;-1.79;100.00
47815;BME280;33579;50.058;18.130;2023-01-29T03:57:19;100260.09;;;-1.75;100.00
47815;BME280;33579;50.058;18.130;2023-01-29T03:58:50;100257.56;;;-1.77;100.00
47815;BME280;33579;50.058;18.130;2023-01-29T04:00:18;100252.25;;;-1.69;100.00
47815;BME280;33579;50.058;18.130;2023-01-29T04:02:12;100247.88;;;-1.65;100.00
47815;BME280;33579;50.058;18.130;2023-01-29T04:03:21;100246.97;;;-1.63;100.00
47815;BME280;33579;50.058;18.130;2023-01-29T04:04:27;100242.75;;;-1.68;100.00
47815;BME280;33579;50.058;18.130;2023-01-29T04:05:37;100254.19;;;-1.82;100.00
47815;BME280;33579;50.058;18.130;2023-01-29T04:07:02;100247.34;;;-1.83;100.00
47815;BME280;33579;50.058;18.130;2023-01-29T04:08:11;100247.34;;;-1.83;100.00
47815;BME280;33579;50.058;18.130;2023-01-29T04:09:19;100241.28;;;-1.79;100.00
47815;BME280;33579;50.058;18.130;2023-01-29T04:10:25;100234.25;;;-1.72;100.00
47815;BME280;33579;50.058;18.130;2023-01-29T04:11:28;100235.06;;;-1.70;100.00
47815;BME280;33579;50.058;18.130;2023-01-29T04:12:37;100235.88;;;-1.66;100.00
47815;BME280;33579;50.058;18.130;2023-01-29T04:13:41;100240.19;;;-1.68;100.00
47815;BME280;33579;50.058;18.130;2023-01-29T04:14:43;100248.84;;;-1.71;100.00
47815;BME280;33579;50.058;18.130;2023-01-29T04:15:50;100236.78;;;-1.71;100.00
47815;BME280;33579;50.058;18.130;2023-01-29T04:17:03;100236.63;;;-1.63;100.00
47815;BME280;33579;50.058;18.130;2023-01-29T04:18:14;100240.09;;;-1.62;100.00
47815;BME280;33579;50.058;18.130;2023-01-29T04:19:48;100233.94;;;-1.57;100.00
47815;BME280;33579;50.058;18.130;2023-01-29T04:20:50;100234.69;;;-1.51;100.00
47815;BME280;33579;50.058;18.130;2023-01-29T04:22:01;100234.78;;;-1.56;100.00
47815;BME280;33579;50.058;18.130;2023-01-29T04:23:05;100229.88;;;-1.68;100.00
47815;BME280;33579;50.058;18.130;2023-01-29T04:24:07;100230.81;;;-1.73;100.00
47815;BME280;33579;50.058;18.130;2023-01-29T04:25:11;100224.78;;;-1.72;100.00
47815;BME280;33579;50.058;18.130;2023-01-29T04:26:42;100224.66;;;-1.65;100.00
47815;BME280;33579;50.058;18.130;2023-01-29T04:28:06;100224.59;;;-1.62;100.00
47815;BME280;33579;50.058;18.130;2023-01-29T04:31:49;100214.72;;;-1.86;100.00
47815;BME280;33579;50.058;18.130;2023-01-29T04:34:25;100205.34;;;-1.90;100.00
47815;BME280;33579;50.058;18.130;2023-01-29T04:39:10;100194.69;;;-1.71;100.00
47815;BME280;33579;50.058;18.130;2023-01-29T04:40:24;100192.94;;;-1.71;100.00
47815;BME280;33579;50.058;18.130;2023-01-29T04:41:33;100186.88;;;-1.70;100.00
47815;BME280;33579;50.058;18.130;2023-01-29T04:47:59;100183.59;;;-1.76;100.00
47815;BME280;33579;50.058;18.130;2023-01-29T04:50:32;100174.53;;;-1.96;100.00
47815;BME280;33579;50.058;18.130;2023-01-29T04:51:46;100173.59;;;-1.93;100.00
47815;BME280;33579;50.058;18.130;2023-01-29T04:53:04;100180.59;;;-2.00;100.00
47815;BME280;33579;50.058;18.130;2023-01-29T04:54:23;100175.41;;;-1.97;100.00
47815;BME280;33579;50.058;18.130;2023-01-29T04:55:32;100165.03;;;-1.95;100.00
47815;BME280;33579;50.058;18.130;2023-01-29T04:59:18;100162.28;;;-1.85;100.00
47815;BME280;33579;50.058;18.130;2023-01-29T05:00:30;100157.13;;;-1.86;100.00
47815;BME280;33579;50.058;18.130;2023-01-29T05:01:34;100164.84;;;-1.85;100.00
47815;BME280;33579;50.058;18.130;2023-01-29T05:02:38;100164.78;;;-1.81;100.00
47815;BME280;33579;50.058;18.130;2023-01-29T05:03:42;100160.44;;;-1.81;100.00
47815;BME280;33579;50.058;18.130;2023-01-29T05:04:46;100164.78;;;-1.83;100.00
47815;BME280;33579;50.058;18.130;2023-01-29T05:05:49;100164.72;;;-1.80;100.00
47815;BME280;33579;50.058;18.130;2023-01-29T05:06:51;100156.09;;;-1.77;100.00
47815;BME280;33579;50.058;18.130;2023-01-29T05:07:54;100171.56;;;-1.77;100.00
47815;BME280;33579;50.058;18.130;2023-01-29T05:08:58;100169.78;;;-1.75;100.00
47815;BME280;33579;50.058;18.130;2023-01-29T05:10:03;100180.13;;;-1.75;100.00
47815;BME280;33579;50.058;18.130;2023-01-29T05:11:06;100174.22;;;-1.82;100.00
47815;BME280;33579;50.058;18.130;2023-01-29T05:12:08;100174.38;;;-1.90;100.00
47815;BME280;33579;50.058;18.130;2023-01-29T05:13:13;100174.38;;;-1.88;100.00
47815;BME280;33579;50.058;18.130;2023-01-29T05:14:17;100176.09;;;-1.89;100.00
47815;BME280;33579;50.058;18.130;2023-01-29T05:15:24;100174.28;;;-1.84;100.00
47815;BME280;33579;50.058;18.130;2023-01-29T05:16:29;100175.16;;;-1.85;100.00
47815;BME280;33579;50.058;18.130;2023-01-29T05:17:33;100178.59;;;-1.86;100.00
47815;BME280;33579;50.058;18.130;2023-01-29T05:18:35;100181.22;;;-1.87;100.00
47815;BME280;33579;50.058;18.130;2023-01-29T05:19:37;100179.53;;;-1.88;100.00
47815;BME280;33579;50.058;18.130;2023-01-29T05:20:40;100173.44;;;-1.86;100.00
47815;BME280;33579;50.058;18.130;2023-01-29T05:21:48;100176.00;;;-1.86;100.00
47815;BME280;33579;50.058;18.130;2023-01-29T05:22:50;100177.75;;;-1.85;100.00
47815;BME280;33579;50.058;18.130;2023-01-29T05:24:11;100179.38;;;-1.82;100.00
47815;BME280;33579;50.058;18.130;2023-01-29T05:26:20;100177.78;;;-1.88;100.00
47815;BME280;33579;50.058;18.130;2023-01-29T05:27:33;100176.16;;;-1.92;100.00
47815;BME280;33579;50.058;18.130;2023-01-29T05:28:35;100179.69;;;-1.96;100.00
47815;BME280;33579;50.058;18.130;2023-01-29T05:29:45;100177.28;;;-2.05;100.00
47815;BME280;33579;50.058;18.130;2023-01-29T05:30:49;100183.38;;;-2.09;100.00
47815;BME280;33579;50.058;18.130;2023-01-29T05:31:51;100184.22;;;-2.10;100.00
47815;BME280;33579;50.058;18.130;2023-01-29T05:32:53;100181.78;;;-2.17;100.00
47815;BME280;33579;50.058;18.130;2023-01-29T05:33:54;100181.66;;;-2.10;100.00
47815;BME280;33579;50.058;18.130;2023-01-29T05:34:56;100175.63;;;-2.09;100.00
47815;BME280;33579;50.058;18.130;2023-01-29T05:35:58;100176.56;;;-2.14;100.00
47815;BME280;33579;50.058;18.130;2023-01-29T05:37:00;100177.44;;;-2.15;100.00
47815;BME280;33579;50.058;18.130;2023-01-29T05:38:02;100180.09;;;-2.18;100.00
47815;BME280;33579;50.058;18.130;2023-01-29T05:39:03;100175.81;;;-2.19;100.00
47815;BME280;33579;50.058;18.130;2023-01-29T05:40:05;100181.88;;;-2.21;100.00
47815;BME280;33579;50.058;18.130;2023-01-29T05:41:07;100171.56;;;-2.23;100.00
47815;BME280;33579;50.058;18.130;2023-01-29T05:42:09;100168.22;;;-2.27;100.00
47815;BME280;33579;50.058;18.130;2023-01-29T05:43:18;100168.22;;;-2.28;100.00
47815;BME280;33579;50.058;18.130;2023-01-29T05:44:20;100164.69;;;-2.22;100.00
47815;BME280;33579;50.058;18.130;2023-01-29T05:45:22;100170.59;;;-2.17;100.00
47815;BME280;33579;50.058;18.130;2023-01-29T05:46:24;100172.31;;;-2.16;100.00
47815;BME280;33579;50.058;18.130;2023-01-29T05:47:25;100174.03;;;-2.17;100.00
47815;BME280;33579;50.058;18.130;2023-01-29T05:48:28;100175.75;;;-2.16;100.00
47815;BME280;33579;50.058;18.130;2023-01-29T05:49:29;100173.22;;;-2.19;100.00
47815;BME280;33579;50.058;18.130;2023-01-29T05:50:31;100171.63;;;-2.24;100.00
47815;BME280;33579;50.058;18.130;2023-01-29T05:51:33;100178.47;;;-2.23;100.00
47815;BME280;33579;50.058;18.130;2023-01-29T05:52:34;100173.31;;;-2.23;100.00
47815;BME280;33579;50.058;18.130;2023-01-29T05:53:36;100173.28;;;-2.22;100.00
47815;BME280;33579;50.058;18.130;2023-01-29T05:54:37;100169.06;;;-2.26;100.00
47815;BME280;33579;50.058;18.130;2023-01-29T05:55:39;100173.19;;;-2.17;100.00
47815;BME280;33579;50.058;18.130;2023-01-29T05:56:40;100174.78;;;-2.12;100.00
47815;BME280;33579;50.058;18.130;2023-01-29T05:57:42;100175.75;;;-2.17;100.00
47815;BME280;33579;50.058;18.130;2023-01-29T05:58:43;100177.53;;;-2.19;100.00
47815;BME280;33579;50.058;18.130;2023-01-29T05:59:45;100175.91;;;-2.25;100.00
47815;BME280;33579;50.058;18.130;2023-01-29T06:00:46;100182.84;;;-2.29;100.00
47815;BME280;33579;50.058;18.130;2023-01-29T06:01:48;100186.22;;;-2.25;100.00
47815;BME280;33579;50.058;18.130;2023-01-29T06:02:50;100184.44;;;-2.21;100.00
47815;BME280;33579;50.058;18.130;2023-01-29T06:03:51;100179.28;;;-2.21;100.00
47815;BME280;33579;50.058;18.130;2023-01-29T06:04:53;100187.91;;;-2.22;100.00
47815;BME280;33579;50.058;18.130;2023-01-29T06:05:54;100178.38;;;-2.19;100.00
47815;BME280;33579;50.058;18.130;2023-01-29T06:06:56;100181.78;;;-2.17;100.00
47815;BME280;33579;50.058;18.130;2023-01-29T06:07:57;100179.13;;;-2.14;100.00
47815;BME280;33579;50.058;18.130;2023-01-29T06:08:59;100184.28;;;-2.14;100.00
47815;BME280;33579;50.058;18.130;2023-01-29T06:10:02;100180.09;;;-2.18;100.00
47815;BME280;33579;50.058;18.130;2023-01-29T06:11:06;100181.66;;;-2.10;100.00
47815;BME280;33579;50.058;18.130;2023-01-29T06:12:08;100180.69;;;-2.05;100.00
47815;BME280;33579;50.058;18.130;2023-01-29T06:13:10;100178.97;;;-2.04;100.00
47815;BME280;33579;50.058;18.130;2023-01-29T06:14:11;100177.19;;;-2.01;100.00
47815;BME280;33579;50.058;18.130;2023-01-29T06:15:13;100178.03;;;-2.00;100.00
47815;BME280;33579;50.058;18.130;2023-01-29T06:16:15;100176.38;;;-2.04;100.00
47815;BME280;33579;50.058;18.130;2023-01-29T06:17:17;100180.00;;;-2.13;100.00
47815;BME280;33579;50.058;18.130;2023-01-29T06:18:18;100177.34;;;-2.08;100.00
47815;BME280;33579;50.058;18.130;2023-01-29T06:19:20;100182.50;;;-2.10;100.00
47815;BME280;33579;50.058;18.130;2023-01-29T06:20:22;100186.88;;;-2.14;100.00
47815;BME280;33579;50.058;18.130;2023-01-29T06:21:23;100184.28;;;-2.12;100.00
47815;BME280;33579;50.058;18.130;2023-01-29T06:22:25;100185.25;;;-2.19;100.00
47815;BME280;33579;50.058;18.130;2023-01-29T06:23:27;100186.13;;;-2.19;100.00
47815;BME280;33579;50.058;18.130;2023-01-29T06:24:28;100185.19;;;-2.15;100.00
47815;BME280;33579;50.058;18.130;2023-01-29T06:25:30;100200.66;;;-2.15;100.00